Data for 06/19/2008

Time Sea-Level Adjusted Pressure Absolute Pressure Temperature Relative Humidity Dew Point   
(mb) (inHg) (mb) (inHg) (C) (F) (%) (C) (F)
00:05 1020 30.12 849 25.07 12.4 54.4 65 6.1 43
00:10 1020 30.12 849 25.07 12.4 54.3 64 5.9 42.6
00:15 1020 30.12 849 25.07 12.6 54.7 64 6.1 43
00:20 1020 30.12 849 25.07 12.9 55.3 63 6 42.9
00:25 1020 30.12 849 25.07 13.2 55.7 63 6.3 43.3
00:30 1020 30.12 849 25.07 13 55.3 64 6.3 43.3
00:35 1020 30.12 849 25.07 12.5 54.6 65 6.2 43.1
00:40 1020 30.12 849 25.07 12.3 54.2 67 6.3 43.4
00:45 1020 30.12 849 25.07 12.3 54.1 67 6.4 43.5
00:50 1020 30.12 849 25.07 12.2 54 67 6.3 43.3
00:55 1020 30.12 849 25.07 12.4 54.3 65 6.1 43
01:00 1020 30.12 849 25.07 12.4 54.3 66 6.2 43.1
01:05 1020 30.12 850 25.1 12.5 54.4 63 5.6 42
01:10 1020 30.12 850 25.1 12.7 54.9 62 5.8 42.4
01:15 1020 30.12 850 25.1 12.6 54.6 63 5.8 42.5
01:20 1020 30.12 850 25.1 12.4 54.4 62 5.5 41.9
01:25 1021 30.15 850 25.1 12.5 54.6 63 5.6 42.1
01:30 1021 30.15 850 25.1 12.4 54.3 64 5.8 42.4
01:35 1021 30.15 850 25.1 12.1 53.8 65 5.8 42.4
01:40 1021 30.15 850 25.1 11.9 53.5 66 5.8 42.4
01:45 1021 30.15 850 25.1 11.5 52.8 69 6 42.8
01:50 1021 30.15 850 25.1 10.9 51.5 70 5.7 42.2
01:55 1021 30.15 850 25.1 10.6 51 71 5.5 41.9
02:00 1021 30.15 850 25.1 10.5 51 71 5.5 41.8
02:05 1021 30.15 850 25.1 10.8 51.4 69 5.4 41.8
02:10 1021 30.15 850 25.1 10.9 51.6 69 5.5 42
02:15 1021 30.15 850 25.1 10.8 51.4 70 5.5 42
02:20 1021 30.15 850 25.1 10.8 51.4 69 5.4 41.8
02:25 1021 30.15 850 25.1 10.9 51.6 69 5.4 41.7
02:30 1021 30.15 850 25.1 11 51.7 68 5.4 41.8
02:35 1021 30.15 850 25.1 11.1 51.9 68 5.3 41.6
02:40 1021 30.15 850 25.1 11.4 52.5 66 5.4 41.7
02:45 1021 30.15 850 25.1 11.8 53.2 63 5.1 41.2
02:50 1021 30.15 850 25.1 12.4 54.3 61 5.1 41.2
02:55 1021 30.15 850 25.1 12.9 55.2 59 5.1 41.1
03:00 1021 30.15 850 25.1 13.2 55.8 56 4.7 40.5
03:05 1021 30.15 850 25.1 13.5 56.3 55 4.8 40.6
03:10 1021 30.15 850 25.1 13.6 56.5 54 4.5 40.1
03:15 1021 30.15 851 25.13 13.8 56.9 52 4.3 39.8
03:20 1021 30.15 851 25.13 13.9 57.1 52 4.3 39.7
03:25 1021 30.15 851 25.13 13.7 56.7 57 5.4 41.7
03:30 1021 30.15 851 25.13 12.8 55.1 61 5.5 41.9
03:35 1021 30.15 851 25.13 12.2 53.9 64 5.5 41.9
03:40 1021 30.15 851 25.13 11.9 53.3 64 5.3 41.5
03:45 1021 30.15 851 25.13 11.9 53.3 62 4.8 40.7
03:50 1021 30.15 851 25.13 12.1 53.8 61 4.9 40.8
03:55 1021 30.15 851 25.13 12.1 53.8 60 4.7 40.4
04:00 1022 30.18 851 25.13 12.2 54 60 4.8 40.7
04:05 1022 30.18 851 25.13 11.9 53.4 63 5.2 41.3
04:10 1022 30.18 851 25.13 11.5 52.7 65 5.2 41.4
04:15 1022 30.18 851 25.13 11.1 51.9 66 5.1 41.1
04:20 1022 30.18 851 25.13 10.9 51.7 64 4.4 39.8
04:25 1022 30.18 851 25.13 11.3 52.3 61 4 39.2
04:30 1022 30.18 851 25.13 11.6 52.8 58 3.6 38.4
04:35 1022 30.18 851 25.13 11.8 53.2 63 4.9 40.9
04:40 1022 30.18 851 25.13 11 51.8 68 5.3 41.5
04:45 1022 30.18 851 25.13 10.4 50.7 70 5.2 41.4
04:50 1022 30.18 851 25.13 10.3 50.5 69 4.9 40.8
04:55 1022 30.18 851 25.13 10.5 50.9 65 4.2 39.6
05:00 1022 30.18 851 25.13 10.4 50.6 64 4 39.2
05:05 1022 30.18 851 25.13 10.1 50.2 65 3.9 39
05:10 1022 30.18 851 25.13 10.1 50.1 64 3.5 38.4
05:15 1022 30.18 851 25.13 10.1 50.1 63 3.4 38
05:20 1022 30.18 851 25.13 10.5 50.8 60 3.2 37.7
05:25 1022 30.18 851 25.13 10.5 50.8 62 3.6 38.5
05:30 1022 30.18 851 25.13 10 49.9 65 3.7 38.7
05:35 1022 30.18 852 25.16 9.6 49.4 66 3.6 38.5
05:40 1022 30.18 852 25.16 9.6 49.2 66 3.6 38.5
05:45 1022 30.18 852 25.16 9.5 49.2 66 3.6 38.5
05:50 1022 30.18 852 25.16 9.4 48.9 67 3.7 38.6
05:55 1023 30.21 852 25.16 9.3 48.7 67 3.5 38.3
06:00 1023 30.21 852 25.16 9.5 49.1 67 3.7 38.6
06:05 1023 30.21 852 25.16 9.6 49.3 66 3.5 38.4
06:10 1023 30.21 852 25.16 9.6 49.2 65 3.4 38.2
06:15 1023 30.21 852 25.16 9.7 49.4 66 3.6 38.6
06:20 1023 30.21 852 25.16 9.6 49.2 67 3.8 38.9
06:25 1023 30.21 852 25.16 9.5 49.2 68 4 39.2
06:30 1023 30.21 852 25.16 9.7 49.4 67 3.9 39
06:35 1023 30.21 852 25.16 9.7 49.4 67 3.9 39
06:40 1023 30.21 852 25.16 9.6 49.3 67 3.9 38.9
06:45 1023 30.21 852 25.16 9.8 49.7 66 3.9 39
06:50 1023 30.21 852 25.16 10.4 50.6 62 3.5 38.3
06:55 1023 30.21 852 25.16 11 51.7 60 3.6 38.5
07:00 1023 30.21 852 25.16 11.4 52.6 58 3.4 38.1
07:05 1023 30.21 852 25.16 11.6 52.8 56 3.2 37.7
07:10 1023 30.21 852 25.16 11.6 52.9 54 2.5 36.6
07:15 1023 30.21 853 25.19 11.8 53.3 52 2.5 36.5
07:20 1023 30.21 853 25.19 12.3 54.2 52 2.7 36.9
07:25 1023 30.21 853 25.19 12.5 54.5 50 2.6 36.6
07:30 1024 30.24 853 25.19 12.8 55 49 2.5 36.4
07:35 1024 30.24 853 25.19 13 55.4 47 2.1 35.7
07:40 1024 30.24 853 25.19 13 55.4 47 2.2 35.9
07:45 1024 30.24 853 25.19 13.2 55.8 45 1.5 34.8
07:50 1024 30.24 853 25.19 13.5 56.3 44 1.6 34.9
07:55 1024 30.24 853 25.19 13.7 56.6 44 1.8 35.3
08:00 1024 30.24 853 25.19 13.8 56.8 44 1.9 35.4
08:05 1024 30.24 853 25.19 14.5 58 41 1.3 34.4
08:10 1024 30.24 853 25.19 14.6 58.2 42 1.8 35.2
08:15 1024 30.24 853 25.19 14.8 58.6 37 0.3 32.5
08:20 1024 30.24 853 25.19 14.9 58.8 38 0.7 33.3
08:25 1024 30.24 853 25.19 15.4 59.6 36 0.5 32.9
08:30 1024 30.24 853 25.19 15.6 60.2 36 0.6 33
08:35 1024 30.24 853 25.19 16 60.8 34 0.2 32.4
08:40 1024 30.24 853 25.19 15.3 59.6 33 -0.8 30.6
08:45 1024 30.24 853 25.19 15.1 59.1 34 -0.6 30.8
08:50 1024 30.24 853 25.19 15.1 59.1 34 -0.6 30.9
08:55 1024 30.24 853 25.19 15.7 60.3 33 -0.4 31.3
09:00 1024 30.24 853 25.19 16.3 61.3 32 -0.1 31.8
09:05 1024 30.24 853 25.19 16.5 61.6 31 -0.5 31.1
09:10 1024 30.24 853 25.19 18.7 65.7 22 -3.1 26.5
09:15 1024 30.24 853 25.19 18.5 65.4 28 -0.1 31.9
09:20 1024 30.24 853 25.19 17.5 63.5 28 -1 30.2
09:25 1024 30.24 853 25.19 16.7 62.1 29 -1.4 29.5
09:30 1024 30.24 853 25.19 17.2 62.9 29 -1.1 30.1
09:35 1024 30.24 853 25.19 16.9 62.5 30 -0.7 30.7
09:40 1024 30.24 853 25.19 16.7 62 31 -0.3 31.5
09:45 1024 30.24 853 25.19 17.3 63.2 30 -0.3 31.4
09:50 1024 30.24 853 25.19 17.6 63.7 30 0.1 32.2
09:55 1024 30.24 853 25.19 17.7 63.8 29 -0.3 31.5
10:00 1024 30.24 853 25.19 17.6 63.6 30 -0.3 31.5
10:05 1024 30.24 853 25.19 17 62.6 30 -0.4 31.3
10:10 1024 30.24 853 25.19 17.3 63.2 29 -0.7 30.8
10:15 1024 30.24 853 25.19 18.2 64.7 28 -0.7 30.8
10:20 1024 30.24 853 25.19 18.7 65.6 27 -0.6 30.9
10:25 1024 30.24 853 25.19 18.3 65 27 -1 30.1
10:30 1023 30.21 853 25.19 17.9 64.1 26 -1.7 29
10:35 1023 30.21 853 25.19 18.5 65.3 25 -1.5 29.2
10:40 1023 30.21 853 25.19 18.6 65.4 25 -1.5 29.4
10:45 1023 30.21 853 25.19 18.8 65.8 26 -0.7 30.7
10:50 1023 30.21 853 25.19 19.6 67.3 26 -0 31.9
10:55 1023 30.21 853 25.19 19.6 67.2 24 -1.2 29.8
11:00 1023 30.21 853 25.19 19.4 66.8 25 -1.2 29.9
11:05 1023 30.21 852 25.16 19.2 66.6 25 -0.9 30.4
11:10 1023 30.21 852 25.16 19.3 66.8 26 -0.4 31.3
11:15 1023 30.21 852 25.16 19.8 67.7 24 -1.1 30
11:20 1023 30.21 852 25.16 19.9 67.9 25 -0.7 30.8
11:25 1023 30.21 852 25.16 20 68 24 -0.8 30.5
11:30 1023 30.21 852 25.16 20.6 69.1 23 -1.2 29.9
11:35 1023 30.21 852 25.16 18.7 65.6 25 -1.5 29.2
11:40 1023 30.21 852 25.16 18.7 65.7 25 -1.5 29.3
11:45 1023 30.21 852 25.16 19.2 66.5 26 -0.9 30.4
11:50 1023 30.21 852 25.16 19.8 67.6 25 -0.9 30.4
11:55 1023 30.21 852 25.16 20.4 68.7 24 -0.6 30.9
12:00 1023 30.21 852 25.16 20.1 68.2 25 -0.6 30.9
12:05 1023 30.21 852 25.16 20.2 68.4 25 -0.3 31.5
12:10 1023 30.21 852 25.16 20.5 68.9 25 0 32
12:15 1023 30.21 852 25.16 20.1 68.2 25 -0.2 31.6
12:20 1023 30.21 852 25.16 19.9 67.8 24 -1 30.2
12:25 1023 30.21 852 25.16 20.2 68.4 25 -0.1 31.8
12:30 1023 30.21 852 25.16 20.7 69.2 24 -0.2 31.7
12:35 1023 30.21 852 25.16 21.2 70.2 25 0.7 33.3
12:40 1023 30.21 852 25.16 20.5 69 28 1.7 35
12:45 1023 30.21 852 25.16 20.6 69.1 26 0.3 32.6
12:50 1023 30.21 852 25.16 21.3 70.3 24 0 32
12:55 1023 30.21 852 25.16 21.5 70.6 25 0.8 33.5
13:00 1023 30.21 852 25.16 21.2 70.2 25 0.8 33.4
13:05 1023 30.21 852 25.16 21.5 70.6 26 1.1 34
13:10 1023 30.21 852 25.16 21 69.8 26 1.1 33.9
13:15 1023 30.21 852 25.16 21.1 69.9 25 0.7 33.3
13:20 1022 30.18 852 25.16 21.2 70.1 27 1.5 34.7
13:25 1022 30.18 852 25.16 21.9 71.5 26 1.5 34.7
13:30 1022 30.18 852 25.16 20.7 69.2 28 1.7 35.1
13:35 1022 30.18 852 25.16 20.1 68.2 27 0.6 33.1
13:40 1022 30.18 852 25.16 21.2 70.2 26 1.3 34.3
13:45 1022 30.18 852 25.16 21.5 70.7 26 1.4 34.6
13:50 1022 30.18 852 25.16 21.2 70.2 26 1.3 34.4
13:55 1023 30.21 852 25.16 20.4 68.6 27 1.1 34
14:00 1023 30.21 852 25.16 20.3 68.6 27 0.8 33.4
14:05 1023 30.21 852 25.16 20.4 68.8 27 1.2 34.1
14:10 1022 30.18 852 25.16 21.3 70.4 26 1.3 34.3
14:15 1022 30.18 852 25.16 21.8 71.2 26 1.4 34.5
14:20 1022 30.18 852 25.16 22.1 71.9 24 0.9 33.6
14:25 1022 30.18 852 25.16 22 71.7 26 1.8 35.2
14:30 1022 30.18 851 25.13 21.8 71.2 24 0.5 32.9
14:35 1022 30.18 851 25.13 21.9 71.4 25 1.1 34.1
14:40 1022 30.18 851 25.13 22.4 72.4 24 1 33.8
14:45 1022 30.18 851 25.13 21.8 71.2 24 0.6 33.1
14:50 1022 30.18 851 25.13 21.7 71 25 0.9 33.5
14:55 1022 30.18 851 25.13 22.2 72 23 0.1 32.2
15:00 1022 30.18 851 25.13 22.4 72.4 24 1.1 34.1
15:05 1022 30.18 851 25.13 22.4 72.2 25 1.6 35
15:10 1022 30.18 851 25.13 22.6 72.7 23 0.6 33
15:15 1022 30.18 851 25.13 22.9 73.2 23 1 33.8
15:20 1022 30.18 851 25.13 23.2 73.8 24 1.5 34.8
15:25 1022 30.18 851 25.13 23.3 73.9 23 1 33.7
15:30 1022 30.18 851 25.13 22.9 73.2 23 0.9 33.6
15:35 1022 30.18 851 25.13 23.1 73.5 23 1.2 34.2
15:40 1022 30.18 851 25.13 24 75.2 20 0 32
15:45 1022 30.18 851 25.13 24.2 75.5 20 0.3 32.5
15:50 1022 30.18 851 25.13 23.2 73.8 22 0.9 33.5
15:55 1022 30.18 851 25.13 23.1 73.6 22 0.4 32.8
16:00 1022 30.18 851 25.13 23 73.4 22 0.4 32.8
16:05 1022 30.18 851 25.13 22.9 73.2 22 0 32
16:10 1022 30.18 851 25.13 23 73.4 22 0.1 32.1
16:15 1022 30.18 851 25.13 23.4 74 22 0.7 33.2
16:20 1022 30.18 851 25.13 23.5 74.4 22 0.6 33.1
16:25 1022 30.18 851 25.13 23.6 74.4 21 0.3 32.5
16:30 1022 30.18 851 25.13 23.3 74 21 0.3 32.5
16:35 1022 30.18 851 25.13 23.1 73.6 21 0 32
16:40 1022 30.18 851 25.13 23.1 73.6 21 0.1 32.1
16:45 1022 30.18 851 25.13 23.1 73.6 21 -0.1 31.9
16:50 1022 30.18 851 25.13 23.8 74.8 20 -0.1 31.9
16:55 1022 30.18 851 25.13 23.8 74.9 21 0.7 33.2
17:00 1021 30.15 851 25.13 24.1 75.4 20 -0.1 31.7
17:05 1021 30.15 851 25.13 24.1 75.4 21 0.4 32.7
17:10 1021 30.15 851 25.13 24.2 75.5 20 -0.2 31.6
17:15 1021 30.15 851 25.13 24.3 75.7 19 -0.6 30.9
17:20 1021 30.15 851 25.13 24.3 75.7 20 0.1 32.2
17:25 1021 30.15 850 25.1 24.7 76.4 20 0.3 32.6
17:30 1021 30.15 850 25.1 24.2 75.5 20 0.2 32.4
17:35 1021 30.15 850 25.1 24 75.1 19 -0.6 31
17:40 1021 30.15 850 25.1 24.2 75.5 19 -0.3 31.4
17:45 1021 30.15 850 25.1 23.7 74.6 20 -0.3 31.5
17:50 1021 30.15 850 25.1 23.5 74.4 20 -0.4 31.2
17:55 1021 30.15 850 25.1 23.8 74.8 20 -0.2 31.6
18:00 1021 30.15 850 25.1 24.2 75.6 20 -0 31.9
18:05 1021 30.15 850 25.1 24.1 75.4 20 -0.1 31.7
18:10 1021 30.15 850 25.1 23.8 74.8 20 -0.4 31.3
18:15 1021 30.15 850 25.1 23.5 74.2 19 -1 30.3
18:20 1021 30.15 850 25.1 23.6 74.4 19 -1 30.2
18:25 1021 30.15 850 25.1 23.8 74.8 20 -0.2 31.7
18:30 1021 30.15 850 25.1 23.6 74.4 22 0.6 33.2
18:35 1021 30.15 850 25.1 23.6 74.4 20 -0.3 31.4
18:40 1021 30.15 850 25.1 23.3 74 21 0.1 32.2
18:45 1021 30.15 850 25.1 22.8 73 21 -0.6 31
18:50 1021 30.15 850 25.1 22.9 73.2 20 -1.2 29.9
18:55 1021 30.15 850 25.1 22.7 72.9 21 -0.8 30.5
19:00 1021 30.15 850 25.1 22.6 72.8 20 -0.9 30.3
19:05 1021 30.15 850 25.1 22 71.7 21 -0.8 30.5
19:10 1021 30.15 850 25.1 22.4 72.3 20 -1.3 29.6
19:15 1021 30.15 850 25.1 23 73.3 20 -1.2 29.9
19:20 1021 30.15 850 25.1 22.5 72.4 20 -1.6 29.1
19:25 1021 30.15 850 25.1 22.5 72.5 20 -1.1 30.1
19:30 1021 30.15 850 25.1 22.8 73 20 -1.1 30.1
19:35 1021 30.15 851 25.13 22.2 71.9 21 -1.2 29.8
19:40 1021 30.15 851 25.13 21.9 71.4 21 -1 30.2
19:45 1021 30.15 851 25.13 21.8 71.3 22 -0.9 30.3
19:50 1021 30.15 851 25.13 21.8 71.3 22 -0.8 30.5
19:55 1021 30.15 851 25.13 21.7 71.1 22 -1 30.2
20:00 1021 30.15 851 25.13 21.8 71.2 21 -1.2 29.8
20:05 1022 30.18 851 25.13 21.6 70.9 21 -1.4 29.5
20:10 1022 30.18 851 25.13 21.4 70.5 22 -1.1 30.1
20:15 1022 30.18 851 25.13 21.3 70.4 22 -1.3 29.7
20:20 1022 30.18 851 25.13 21.4 70.5 22 -0.7 30.7
20:25 1022 30.18 851 25.13 21.4 70.5 22 -1 30.2
20:30 1022 30.18 851 25.13 21.4 70.4 23 -0.4 31.3
20:35 1022 30.18 851 25.13 21.2 70.2 26 1.4 34.5
20:40 1022 30.18 851 25.13 20.3 68.6 30 2.3 36.2
20:45 1022 30.18 851 25.13 19.9 67.8 31 2.5 36.5
20:50 1022 30.18 851 25.13 19.4 67 33 2.7 36.9
20:55 1022 30.18 851 25.13 19.3 66.7 33 2.5 36.6
21:00 1022 30.18 851 25.13 19.3 66.7 33 2.8 37
21:05 1022 30.18 851 25.13 19.1 66.5 33 2.4 36.4
21:10 1022 30.18 851 25.13 19.1 66.3 32 2.3 36.2
21:15 1022 30.18 851 25.13 19.1 66.3 34 2.8 37
21:20 1022 30.18 851 25.13 19 66.3 34 3.1 37.6
21:25 1022 30.18 851 25.13 18.9 66 37 3.9 39
21:30 1022 30.18 851 25.13 18.3 65 39 4.1 39.4
21:35 1022 30.18 851 25.13 17.8 64.1 43 5.1 41.1
21:40 1022 30.18 851 25.13 17.3 63.2 44 5.1 41.1
21:45 1022 30.18 851 25.13 16.8 62.2 45 4.8 40.6
21:50 1022 30.18 851 25.13 16.1 61 48 5.1 41.1
21:55 1022 30.18 852 25.16 15.9 60.5 49 5.2 41.4
22:00 1022 30.18 852 25.16 15.3 59.5 52 5.6 42
22:05 1023 30.21 852 25.16 14.9 58.8 51 4.8 40.6
22:10 1023 30.21 852 25.16 14.8 58.6 52 5 41
22:15 1023 30.21 852 25.16 14.8 58.6 49 4.2 39.5
22:20 1023 30.21 852 25.16 14.8 58.7 49 4.3 39.7
22:25 1023 30.21 852 25.16 14.7 58.5 49 4.2 39.6
22:30 1023 30.21 852 25.16 14.6 58.3 47 3.6 38.6
22:35 1023 30.21 852 25.16 14.6 58.4 50 4.4 39.9
22:40 1023 30.21 852 25.16 14.9 58.8 45 3.1 37.5
22:45 1023 30.21 852 25.16 15.1 59.1 45 3.3 37.9
22:50 1023 30.21 852 25.16 15.1 59.2 45 3.5 38.3
22:55 1023 30.21 852 25.16 15.1 59.1 47 3.8 38.9
23:00 1023 30.21 852 25.16 14.9 58.8 50 4.7 40.4
23:05 1023 30.21 852 25.16 14.5 58.2 49 4.2 39.5
23:10 1023 30.21 852 25.16 14.3 57.8 51 4.3 39.8
23:15 1023 30.21 852 25.16 14.2 57.5 51 4.1 39.4
23:20 1023 30.21 852 25.16 14 57.1 51 4 39.2
23:25 1023 30.21 852 25.16 14 57.2 51 4 39.2
23:30 1023 30.21 852 25.16 13.6 56.5 53 4.4 39.9
23:35 1023 30.21 853 25.19 13.2 55.8 55 4.4 39.9
23:40 1023 30.21 853 25.19 13 55.3 55 4.2 39.6
23:45 1023 30.21 853 25.19 12.8 55.1 55 4 39.2
23:50 1023 30.21 853 25.19 12.8 55 55 4 39.2
23:55 1023 30.21 853 25.19 12.7 54.8 55 4 39.2
24:00 1024 30.24 853 25.19 12.6 54.8 53 3.4 38.1